Time;durP1;ratioP1;P1;durP2;ratioP2;P2;SDS_P1;SDS_P2;PMS_P1;PMS_P2;Temp;Humidity;BMP_temperature;BMP_pressure;BME280_temperature;BME280_humidity;BME280_pressure;Samples;Min_cycle;Max_cycle;Signal;HPM_P1;HPM_P2
2022/10/01 00:00:56;;;;;;;1999.90;999.90;;;15.90;99.90;;;;;;4994300;28;20034;-78
2022/10/01 00:03:24;;;;;;;1999.90;999.90;;;15.90;99.90;;;;;;4994108;28;20105;-78
2022/10/01 00:06:04;;;;;;;1999.90;999.90;;;15.90;99.90;;;;;;4994096;28;20054;-76
2022/10/01 00:08:31;;;;;;;1999.90;999.90;;;15.90;99.90;;;;;;4994449;28;20038;-75
2022/10/01 00:11:00;;;;;;;1999.90;999.90;;;15.80;99.90;;;;;;4994081;28;20093;-75
2022/10/01 00:13:26;;;;;;;1999.90;999.90;;;15.80;99.90;;;;;;4993932;28;20025;-74
2022/10/01 00:15:52;;;;;;;1999.90;999.90;;;15.80;99.90;;;;;;4994023;28;20101;-75
2022/10/01 00:18:20;;;;;;;1999.90;999.90;;;15.90;99.90;;;;;;4992858;28;20475;-75
2022/10/01 00:20:46;;;;;;;1999.90;999.90;;;15.90;99.90;;;;;;4976495;28;20039;-74
2022/10/01 00:23:13;;;;;;;1999.90;999.90;;;15.90;99.90;;;;;;4974416;28;20069;-74
2022/10/01 00:25:39;;;;;;;1999.90;999.90;;;15.90;99.90;;;;;;4974752;28;20033;-74
2022/10/01 00:28:05;;;;;;;1999.90;999.90;;;15.90;99.90;;;;;;4974534;28;20022;-76
2022/10/01 00:30:31;;;;;;;1999.90;999.90;;;16.00;99.90;;;;;;4974392;28;20038;-75
2022/10/01 00:32:57;;;;;;;1999.90;999.90;;;16.10;99.90;;;;;;4973956;28;20023;-76
2022/10/01 00:35:22;;;;;;;1999.90;999.90;;;16.20;99.90;;;;;;4974192;28;20042;-75
2022/10/01 00:37:51;;;;;;;1999.90;999.90;;;16.30;99.90;;;;;;4974123;28;20618;-76
2022/10/01 00:40:18;;;;;;;1999.90;999.90;;;16.30;99.90;;;;;;4990580;28;20034;-77
2022/10/01 00:42:44;;;;;;;1999.90;999.90;;;16.30;99.90;;;;;;4993647;28;20084;-75
2022/10/01 00:45:11;;;;;;;1999.90;999.90;;;16.40;99.90;;;;;;4992748;28;20042;-77
2022/10/01 00:47:41;;;;;;;1999.90;999.90;;;16.40;99.90;;;;;;4992256;28;20026;-75
2022/10/01 00:50:29;;;;;;;1999.90;999.90;;;16.40;99.90;;;;;;4993172;28;20026;-75
2022/10/01 00:52:58;;;;;;;1999.90;999.90;;;16.40;99.90;;;;;;4993453;28;20029;-78
2022/10/01 00:55:36;;;;;;;1999.90;999.90;;;16.30;99.90;;;;;;4991874;28;20034;-75
2022/10/01 00:58:03;;;;;;;1999.90;999.90;;;16.30;99.90;;;;;;4993513;28;20026;-74
2022/10/01 01:00:30;;;;;;;1999.90;999.90;;;16.30;99.90;;;;;;4993365;28;20034;-76
2022/10/01 01:02:56;;;;;;;1999.90;999.90;;;16.30;99.90;;;;;;4992886;28;20033;-74
2022/10/01 01:05:22;;;;;;;1999.90;999.90;;;16.30;99.90;;;;;;4991943;28;20034;-75
2022/10/01 01:07:51;;;;;;;1999.90;999.90;;;16.30;99.90;;;;;;4993086;28;20395;-73
2022/10/01 01:10:26;;;;;;;1999.90;999.90;;;16.30;99.90;;;;;;4993147;28;20486;-75
2022/10/01 01:13:04;;;;;;;1999.90;999.90;;;16.30;99.90;;;;;;4992898;28;20442;-75
2022/10/01 01:15:54;;;;;;;1999.90;999.90;;;16.30;99.90;;;;;;4993161;28;20101;-75
2022/10/01 01:18:46;;;;;;;1999.90;999.90;;;16.40;99.90;;;;;;4991556;28;20165;-75
2022/10/01 01:21:27;;;;;;;1999.90;999.90;;;16.40;99.90;;;;;;4982867;28;20407;-74
2022/10/01 01:24:28;;;;;;;1999.90;999.90;;;16.40;99.90;;;;;;4973630;28;20487;-76
2022/10/01 01:27:24;;;;;;;1999.90;999.90;;;16.40;99.90;;;;;;4973564;28;20469;-76
2022/10/01 01:29:53;;;;;;;1999.90;999.90;;;16.50;99.90;;;;;;4971825;28;20030;-73
2022/10/01 01:32:29;;;;;;;1999.90;999.90;;;16.50;99.90;;;;;;4973548;28;20504;-73
2022/10/01 01:35:01;;;;;;;1999.90;999.90;;;16.60;99.90;;;;;;4973295;28;20035;-75
2022/10/01 01:37:32;;;;;;;1999.90;999.90;;;16.60;99.90;;;;;;4973100;28;20052;-76
2022/10/01 01:40:00;;;;;;;1999.90;999.90;;;16.60;99.90;;;;;;4987010;28;20026;-74
2022/10/01 01:42:31;;;;;;;1999.90;999.90;;;16.60;99.90;;;;;;4992940;28;20033;-76
2022/10/01 01:45:00;;;;;;;1999.90;999.90;;;16.70;99.90;;;;;;4992702;28;20026;-72
2022/10/01 01:47:29;;;;;;;1999.90;999.90;;;16.60;99.90;;;;;;4991881;28;20401;-74
2022/10/01 01:49:56;;;;;;;1999.90;999.90;;;16.70;99.90;;;;;;4992612;28;20488;-74
2022/10/01 01:52:22;;;;;;;1999.90;999.90;;;16.70;99.90;;;;;;4992879;28;20030;-73
2022/10/01 01:54:50;;;;;;;1999.90;999.90;;;16.70;99.90;;;;;;4992637;28;20037;-73
2022/10/01 01:57:17;;;;;;;1999.90;999.90;;;16.70;99.90;;;;;;4992644;28;20094;-74
2022/10/01 01:59:43;;;;;;;1999.90;999.90;;;16.80;99.90;;;;;;4991494;28;20045;-73
2022/10/01 02:02:29;;;;;;;1999.90;999.90;;;16.80;99.90;;;;;;4992755;28;20393;-74
2022/10/01 02:05:18;;;;;;;1999.90;999.90;;;16.80;99.90;;;;;;4992281;28;20084;-74
2022/10/01 02:08:11;;;;;;;1999.90;999.90;;;16.80;99.90;;;;;;4991193;28;20050;-73
2022/10/01 02:10:42;;;;;;;1999.90;999.90;;;16.80;99.90;;;;;;4992606;28;20026;-75
2022/10/01 02:13:17;;;;;;;1999.90;999.90;;;16.80;99.90;;;;;;4992908;28;20077;-74
2022/10/01 02:16:19;;;;;;;1999.90;999.90;;;16.80;99.90;;;;;;4992637;28;20054;-74
2022/10/01 02:18:54;;;;;;;1999.90;999.90;;;16.90;99.90;;;;;;4991983;28;20054;-75
2022/10/01 02:21:43;;;;;;;1999.90;999.90;;;16.90;99.90;;;;;;4980153;28;20122;-75
2022/10/01 02:24:56;;;;;;;1999.90;999.90;;;16.90;99.90;;;;;;4973025;28;20023;-74
2022/10/01 02:27:49;;;;;;;1999.90;999.90;;;17.00;99.90;;;;;;4976732;28;20050;-74
2022/10/01 02:30:16;;;;;;;1999.90;999.90;;;17.00;99.90;;;;;;4972966;28;20035;-72
2022/10/01 02:32:44;;;;;;;1999.90;999.90;;;17.00;99.90;;;;;;4973030;28;20081;-74
2022/10/01 02:35:13;;;;;;;1999.90;999.90;;;17.00;99.90;;;;;;4973098;28;20113;-74
2022/10/01 02:37:41;;;;;;;1999.90;999.90;;;17.00;99.90;;;;;;4972803;28;20418;-74
2022/10/01 02:40:13;;;;;;;1999.90;999.90;;;17.00;99.90;;;;;;4987014;28;20478;-74
2022/10/01 02:42:47;;;;;;;1999.90;999.90;;;17.00;99.90;;;;;;4994594;28;20030;-73
2022/10/01 02:45:17;;;;;;;1999.90;999.90;;;17.10;99.90;;;;;;4995402;28;20027;-74
2022/10/01 02:47:52;;;;;;;1999.90;999.90;;;17.00;99.90;;;;;;4994989;28;20022;-74
2022/10/01 02:50:19;;;;;;;1999.90;999.90;;;17.00;99.90;;;;;;4995891;28;20022;-73
2022/10/01 02:52:52;;;;;;;1999.90;999.90;;;17.10;99.90;;;;;;4995653;28;20022;-74
2022/10/01 02:55:23;;;;;;;1999.90;999.90;;;17.10;99.90;;;;;;4995567;28;20106;-73
2022/10/01 02:57:49;;;;;;;1999.90;999.90;;;17.10;99.90;;;;;;4995727;28;20375;-73
2022/10/01 03:00:20;;;;;;;1999.90;999.90;;;17.10;99.90;;;;;;4995643;28;20085;-72
2022/10/01 03:02:47;;;;;;;1999.90;999.90;;;17.10;99.90;;;;;;4995222;28;20053;-74
2022/10/01 03:05:14;;;;;;;1999.90;999.90;;;17.10;99.90;;;;;;4995790;28;20038;-74
2022/10/01 03:07:40;;;;;;;1999.90;999.90;;;17.10;99.90;;;;;;4995222;28;20058;-74
2022/10/01 03:10:07;;;;;;;1999.90;999.90;;;17.10;99.90;;;;;;4995560;28;20042;-78
2022/10/01 03:12:34;;;;;;;1999.90;999.90;;;17.10;99.90;;;;;;4995061;28;20100;-74
2022/10/01 03:15:01;;;;;;;1999.90;999.90;;;17.20;99.90;;;;;;4995037;28;20034;-73
2022/10/01 03:17:27;;;;;;;1999.90;999.90;;;17.20;99.90;;;;;;4994956;28;20025;-73
2022/10/01 03:19:53;;;;;;;1999.90;999.90;;;17.20;99.90;;;;;;4994764;28;20027;-73
2022/10/01 03:22:21;;;;;;;1999.90;999.90;;;17.20;99.90;;;;;;4976606;28;20446;-74
2022/10/01 03:24:51;;;;;;;1999.90;999.90;;;17.20;99.90;;;;;;4975395;28;20034;-74
2022/10/01 03:27:17;;;;;;;1999.90;999.90;;;17.20;99.90;;;;;;4975606;28;20031;-74
2022/10/01 03:29:43;;;;;;;1999.90;999.90;;;17.20;99.90;;;;;;4975370;28;20038;-73
2022/10/01 03:32:10;;;;;;;1999.90;999.90;;;17.30;99.90;;;;;;4975578;28;20398;-73
2022/10/01 03:34:35;;;;;;;1999.90;999.90;;;17.30;99.90;;;;;;4975387;28;20034;-74
2022/10/01 03:37:01;;;;;;;1999.90;999.90;;;17.30;99.90;;;;;;4975103;28;20410;-75
2022/10/01 03:39:26;;;;;;;1999.90;999.90;;;17.30;99.90;;;;;;4984825;28;20030;-74
2022/10/01 03:41:52;;;;;;;1999.90;999.90;;;17.30;99.90;;;;;;4994950;28;20026;-74
2022/10/01 03:44:18;;;;;;;1999.90;999.90;;;17.30;99.90;;;;;;4994838;28;20548;-74
2022/10/01 03:46:43;;;;;;;1999.90;999.90;;;17.30;99.90;;;;;;4993323;28;20036;-74
2022/10/01 03:49:09;;;;;;;1999.90;999.90;;;17.30;99.90;;;;;;4994222;28;20073;-76
2022/10/01 03:51:36;;;;;;;1999.90;999.90;;;17.30;99.90;;;;;;4994598;28;20076;-73
2022/10/01 03:54:03;;;;;;;1999.90;999.90;;;17.30;99.90;;;;;;4994691;28;20022;-75
2022/10/01 03:56:29;;;;;;;1999.90;999.90;;;17.30;99.90;;;;;;4994406;28;20090;-74
2022/10/01 03:58:54;;;;;;;1999.90;999.90;;;17.30;99.90;;;;;;4993886;28;20031;-74
2022/10/01 04:01:20;;;;;;;1999.90;999.90;;;17.30;99.90;;;;;;4993188;28;20030;-74
2022/10/01 04:03:46;;;;;;;1999.90;999.90;;;17.30;99.90;;;;;;4994314;28;20545;-75
2022/10/01 04:06:12;;;;;;;1999.90;999.90;;;17.30;99.90;;;;;;4994410;28;20493;-75
2022/10/01 04:08:38;;;;;;;1999.90;999.90;;;17.30;99.90;;;;;;4994340;28;20026;-75
2022/10/01 04:11:05;;;;;;;1999.90;999.90;;;17.40;99.90;;;;;;4994132;28;20503;-74
2022/10/01 04:13:31;;;;;;;1999.90;999.90;;;17.40;99.90;;;;;;4993807;28;20109;-73
2022/10/01 04:15:57;;;;;;;1999.90;999.90;;;17.40;99.90;;;;;;4994222;28;20038;-76
2022/10/01 04:18:23;;;;;;;1999.90;999.90;;;17.40;99.90;;;;;;4992938;28;20018;-75
2022/10/01 04:20:48;;;;;;;1999.90;999.90;;;17.40;99.90;;;;;;4993733;28;20097;-74
2022/10/01 04:23:14;;;;;;;1999.90;999.90;;;17.40;99.90;;;;;;4976113;28;20425;-75
2022/10/01 04:25:40;;;;;;;1999.90;999.90;;;17.40;99.90;;;;;;4974547;28;20125;-79
2022/10/01 04:28:09;;;;;;;1999.90;999.90;;;17.40;99.90;;;;;;4974345;28;20053;-74
2022/10/01 04:30:37;;;;;;;1999.90;999.90;;;17.40;99.90;;;;;;4973899;28;20023;-75
2022/10/01 04:33:05;;;;;;;1999.90;999.90;;;17.40;99.90;;;;;;4973982;28;20023;-74
2022/10/01 04:35:30;;;;;;;1999.90;999.90;;;17.40;99.90;;;;;;4974249;28;20031;-75
2022/10/01 04:38:14;;;;;;;1999.90;999.90;;;17.40;99.90;;;;;;4972937;28;20118;-73
2022/10/01 04:40:40;;;;;;;1999.90;999.90;;;17.40;99.90;;;;;;4993310;28;20517;-75
2022/10/01 04:43:09;;;;;;;1999.90;999.90;;;17.40;99.90;;;;;;4993505;28;20118;-76
2022/10/01 04:45:36;;;;;;;1999.90;999.90;;;17.40;99.90;;;;;;4993618;28;20041;-75
2022/10/01 04:48:02;;;;;;;1999.90;999.90;;;17.40;99.90;;;;;;4993480;28;20031;-75
2022/10/01 04:50:27;;;;;;;1999.90;999.90;;;17.40;99.90;;;;;;4993565;28;20041;-74
2022/10/01 04:52:53;;;;;;;1999.90;999.90;;;17.40;99.90;;;;;;4993525;28;20030;-74
2022/10/01 04:55:20;;;;;;;1999.90;999.90;;;17.50;99.90;;;;;;4993308;28;20077;-74
2022/10/01 04:57:46;;;;;;;1999.90;999.90;;;17.50;99.90;;;;;;4993493;28;20029;-75
2022/10/01 05:00:15;;;;;;;1999.90;999.90;;;17.50;99.90;;;;;;4992758;28;20065;-75
2022/10/01 05:02:45;;;;;;;1999.90;999.90;;;17.50;99.90;;;;;;4993326;28;20085;-74
2022/10/01 05:05:11;;;;;;;1999.90;999.90;;;17.50;99.90;;;;;;4993328;28;20038;-74
2022/10/01 05:07:38;;;;;;;1999.90;999.90;;;17.50;99.90;;;;;;4992923;28;20050;-75
2022/10/01 05:10:05;;;;;;;1999.90;999.90;;;17.50;99.90;;;;;;4993214;28;20038;-76
2022/10/01 05:12:31;;;;;;;1999.90;999.90;;;17.50;99.90;;;;;;4993229;28;20026;-73
2022/10/01 05:14:56;;;;;;;1999.90;999.90;;;17.50;99.90;;;;;;4993156;28;20038;-73
2022/10/01 05:17:22;;;;;;;1999.90;999.90;;;17.50;99.90;;;;;;4993190;28;20076;-74
2022/10/01 05:19:48;;;;;;;1999.90;999.90;;;17.50;99.90;;;;;;4992667;28;20044;-73
2022/10/01 05:22:14;;;;;;;1999.90;999.90;;;17.50;99.90;;;;;;4983762;28;20027;-73
2022/10/01 05:24:42;;;;;;;1999.90;999.90;;;17.50;99.90;;;;;;4973332;28;20429;-73
2022/10/01 05:27:10;;;;;;;1999.90;999.90;;;17.40;99.90;;;;;;4973659;28;20019;-73
2022/10/01 05:29:37;;;;;;;1999.90;999.90;;;17.40;99.90;;;;;;4973423;28;20058;-74
2022/10/01 05:32:03;;;;;;;1999.90;999.90;;;17.30;99.90;;;;;;4973606;28;20026;-74
2022/10/01 05:34:29;;;;;;;1999.90;999.90;;;17.30;99.90;;;;;;4973422;28;20033;-74
2022/10/01 05:36:54;;;;;;;1999.90;999.90;;;17.30;99.90;;;;;;4987677;28;20456;-74
2022/10/01 05:39:20;;;;;;;1999.90;999.90;;;17.20;99.90;;;;;;4984531;28;20467;-74
2022/10/01 05:41:46;;;;;;;1999.90;999.90;;;17.30;99.90;;;;;;4973584;28;20027;-74
2022/10/01 05:44:11;;;;;;;1999.90;999.90;;;17.30;99.90;;;;;;4973669;28;20066;-75
2022/10/01 05:46:37;;;;;;;1999.90;999.90;;;17.30;99.90;;;;;;4973579;28;20034;-78
2022/10/01 05:49:03;;;;;;;1999.90;999.90;;;17.40;99.90;;;;;;4972874;28;20398;-75
2022/10/01 05:51:29;;;;;;;1999.90;999.90;;;17.40;99.90;;;;;;4973345;28;20026;-75
2022/10/01 05:53:57;;;;;;;1999.90;999.90;;;17.40;99.90;;;;;;4973376;28;20031;-75
2022/10/01 05:56:24;;;;;;;1999.90;999.90;;;17.30;99.90;;;;;;4973620;28;20019;-75
2022/10/01 05:58:50;;;;;;;1999.90;999.90;;;17.20;99.90;;;;;;4973329;28;20027;-76
2022/10/01 06:01:15;;;;;;;1999.90;999.90;;;17.10;99.90;;;;;;4972452;28;20035;-79
2022/10/01 06:03:41;;;;;;;1999.90;999.90;;;17.00;99.90;;;;;;4972984;28;20034;-75
2022/10/01 06:06:07;;;;;;;1999.90;999.90;;;17.00;99.90;;;;;;4973248;28;20042;-75
2022/10/01 06:08:39;;;;;;;1999.90;999.90;;;17.00;99.90;;;;;;4973181;28;20027;-74
2022/10/01 06:11:05;;;;;;;1999.90;999.90;;;17.00;99.90;;;;;;4971835;28;20038;-75
2022/10/01 06:13:30;;;;;;;1999.90;999.90;;;17.10;99.90;;;;;;4972960;28;20031;-79
2022/10/01 06:15:56;;;;;;;1999.90;999.90;;;17.10;99.90;;;;;;4973297;28;20022;-75
2022/10/01 06:18:22;;;;;;;1999.90;999.90;;;17.10;99.90;;;;;;4991546;28;20027;-75
2022/10/01 06:20:48;;;;;;;1999.90;999.90;;;17.20;99.90;;;;;;4996047;28;20393;-75
2022/10/01 06:23:13;;;;;;;1999.90;999.90;;;17.20;99.90;;;;;;4978306;28;20038;-75
2022/10/01 06:25:41;;;;;;;1999.90;999.90;;;17.20;99.90;;;;;;4976941;28;20027;-79
2022/10/01 06:28:09;;;;;;;1999.90;999.90;;;17.20;99.90;;;;;;4976814;28;20031;-75
2022/10/01 06:30:37;;;;;;;1999.90;999.90;;;17.20;99.90;;;;;;4976781;28;20022;-74
2022/10/01 06:33:14;;;;;;;1999.90;999.90;;;17.20;99.90;;;;;;4976288;28;20027;-80
2022/10/01 06:35:50;;;;;;;1999.90;999.90;;;17.20;99.90;;;;;;4975489;28;20489;-78
2022/10/01 06:38:21;;;;;;;1999.90;999.90;;;17.20;99.90;;;;;;4976329;28;20033;-74
2022/10/01 06:41:05;;;;;;;1999.90;999.90;;;17.20;99.90;;;;;;4976526;28;20111;-74
2022/10/01 06:43:31;;;;;;;1999.90;999.90;;;17.20;99.90;;;;;;4976459;28;20042;-75
2022/10/01 06:46:01;;;;;;;1999.90;999.90;;;17.30;99.90;;;;;;4976792;28;20027;-75
2022/10/01 06:48:29;;;;;;;1999.90;999.90;;;17.30;99.90;;;;;;4976240;28;20027;-74
2022/10/01 06:50:55;;;;;;;1999.90;999.90;;;17.30;99.90;;;;;;4975968;28;20494;-75
2022/10/01 06:53:21;;;;;;;1999.90;999.90;;;17.30;99.90;;;;;;4976342;28;20022;-74
2022/10/01 06:55:48;;;;;;;1999.90;999.90;;;17.30;99.90;;;;;;4985150;28;20081;-75
2022/10/01 06:58:23;;;;;;;1999.90;999.90;;;17.30;99.90;;;;;;4994456;28;20485;-74
2022/10/01 07:00:49;;;;;;;1999.90;999.90;;;17.30;99.90;;;;;;4995522;28;20080;-74
2022/10/01 07:03:18;;;;;;;1999.90;999.90;;;17.30;99.90;;;;;;4994476;28;20039;-74
2022/10/01 07:05:44;;;;;;;1999.90;999.90;;;17.30;99.90;;;;;;4995339;28;20177;-75
2022/10/01 07:08:10;;;;;;;1999.90;999.90;;;17.30;99.90;;;;;;4994769;28;20159;-79
2022/10/01 07:10:37;;;;;;;1999.90;999.90;;;17.30;99.90;;;;;;4995468;28;20542;-74
2022/10/01 07:13:07;;;;;;;1999.90;999.90;;;17.30;99.90;;;;;;4995157;28;20501;-74
2022/10/01 07:15:33;;;;;;;1999.90;999.90;;;17.30;99.90;;;;;;4994857;28;20516;-74
2022/10/01 07:17:58;;;;;;;1999.90;999.90;;;17.40;99.90;;;;;;4994541;28;20026;-77
2022/10/01 07:20:24;;;;;;;1999.90;999.90;;;17.40;99.90;;;;;;4995030;28;20026;-78
2022/10/01 07:22:56;;;;;;;1999.90;999.90;;;17.40;99.90;;;;;;4980890;28;20473;-74
2022/10/01 07:25:21;;;;;;;1999.90;999.90;;;17.40;99.90;;;;;;4975336;28;20045;-74
2022/10/01 07:27:47;;;;;;;1999.90;999.90;;;17.40;99.90;;;;;;4975280;28;20022;-74
2022/10/01 07:30:13;;;;;;;1999.90;999.90;;;17.50;99.90;;;;;;4975542;28;20486;-73
2022/10/01 07:32:41;;;;;;;1999.90;999.90;;;17.50;99.90;;;;;;4975918;28;20027;-73
2022/10/01 07:35:07;;;;;;;1999.90;999.90;;;17.50;99.90;;;;;;4975471;28;20076;-74
2022/10/01 07:37:33;;;;;;;1999.90;999.90;;;17.50;99.90;;;;;;4975205;28;20046;-74
2022/10/01 07:39:59;;;;;;;1999.90;999.90;;;17.50;99.90;;;;;;4989072;28;20026;-74
2022/10/01 07:42:26;;;;;;;1999.90;999.90;;;17.50;99.90;;;;;;4995017;28;20034;-74
2022/10/01 07:44:52;;;;;;;1999.90;999.90;;;17.50;99.90;;;;;;4994766;28;20065;-74
2022/10/01 07:47:21;;;;;;;1999.90;999.90;;;17.50;99.90;;;;;;4994745;28;20061;-74
2022/10/01 07:49:47;;;;;;;1999.90;999.90;;;17.60;99.90;;;;;;4994225;28;20023;-74
2022/10/01 07:52:12;;;;;;;1999.90;999.90;;;17.60;99.90;;;;;;4994903;28;20077;-76
2022/10/01 07:54:38;;;;;;;1999.90;999.90;;;17.70;99.90;;;;;;4994779;28;20129;-75
2022/10/01 07:57:03;;;;;;;1999.90;999.90;;;17.70;99.90;;;;;;4994547;28;20033;-75
2022/10/01 07:59:30;;;;;;;1999.90;999.90;;;17.70;99.90;;;;;;4994477;28;20026;-77
2022/10/01 08:01:55;;;;;;;1999.90;999.90;;;17.70;99.90;;;;;;4994131;28;20404;-73
2022/10/01 08:07:07;;;;;;;1999.90;999.90;;;17.60;99.90;;;;;;4994070;28;20103;-74
2022/10/01 08:09:33;;;;;;;1999.90;999.90;;;17.60;99.90;;;;;;4993936;28;20109;-74
2022/10/01 08:11:58;;;;;;;1999.90;999.90;;;17.60;99.90;;;;;;4994081;28;20513;-74
2022/10/01 08:14:25;;;;;;;1999.90;999.90;;;17.60;99.90;;;;;;4994399;28;20097;-73
2022/10/01 08:16:53;;;;;;;1999.90;999.90;;;17.60;99.90;;;;;;4993835;28;20014;-73
2022/10/01 08:19:18;;;;;;;1999.90;999.90;;;17.60;99.90;;;;;;4993509;28;20409;-73
2022/10/01 08:21:44;;;;;;;1999.90;999.90;;;17.70;99.90;;;;;;4988259;28;20026;-75
2022/10/01 08:24:10;;;;;;;1999.90;999.90;;;17.70;99.90;;;;;;4974564;28;20026;-73
2022/10/01 08:26:35;;;;;;;1999.90;999.90;;;17.70;99.90;;;;;;4974589;28;20498;-73
2022/10/01 08:29:01;;;;;;;1999.90;999.90;;;17.80;99.90;;;;;;4974350;28;20054;-73
2022/10/01 08:31:27;;;;;;;1999.90;999.90;;;17.80;99.90;;;;;;4974269;28;20023;-73
2022/10/01 08:33:52;;;;;;;1999.90;999.90;;;17.80;99.90;;;;;;4974136;28;20035;-73
2022/10/01 08:36:19;;;;;;;1999.90;999.90;;;17.80;99.90;;;;;;4974620;28;20027;-73
2022/10/01 08:38:46;;;;;;;1999.90;999.90;;;17.80;99.90;;;;;;4977624;28;20371;-73
2022/10/01 08:41:28;;;;;;;1999.90;999.90;;;17.80;99.90;;;;;;4993242;28;20034;-75
2022/10/01 08:43:54;;;;;;;1999.90;999.90;;;17.90;99.90;;;;;;4993773;28;20042;-73
2022/10/01 08:46:23;;;;;;;1999.90;999.90;;;18.00;99.90;;;;;;4993853;28;20506;-74
2022/10/01 08:49:10;;;;;;;1999.90;999.90;;;18.00;99.90;;;;;;4993297;28;20105;-73
2022/10/01 08:52:02;;;;;;;1999.90;999.90;;;18.00;99.90;;;;;;4993122;28;20034;-73
2022/10/01 08:54:49;;;;;;;1999.90;999.90;;;18.00;99.90;;;;;;4993636;28;20117;-73
2022/10/01 08:57:20;;;;;;;1999.90;999.90;;;18.10;99.90;;;;;;4993371;28;20027;-74
2022/10/01 08:59:50;;;;;;;1999.90;999.90;;;18.00;99.90;;;;;;4993477;28;20026;-73
2022/10/01 09:02:27;;;;;;;1999.90;999.90;;;18.00;99.90;;;;;;4992051;28;20073;-74
2022/10/01 09:04:56;;;;;;;1999.90;999.90;;;18.00;99.90;;;;;;4992612;28;20026;-74
2022/10/01 09:07:31;;;;;;;1999.90;999.90;;;18.00;99.90;;;;;;4992998;28;20046;-74
2022/10/01 09:10:15;;;;;;;1999.90;999.90;;;18.00;99.90;;;;;;4993337;28;20081;-73
2022/10/01 09:12:52;;;;;;;1999.90;999.90;;;18.10;99.90;;;;;;4993408;28;20363;-73
2022/10/01 09:15:37;;;;;;;1999.90;999.90;;;18.10;99.90;;;;;;4993074;28;20456;-73
2022/10/01 09:18:38;;;;;;;1999.90;999.90;;;18.10;99.90;;;;;;4992384;28;20037;-73
2022/10/01 09:21:12;;;;;;;1999.90;999.90;;;18.20;99.90;;;;;;4999329;28;20045;-73
2022/10/01 09:23:53;;;;;;;1999.90;999.90;;;18.20;99.90;;;;;;4982951;28;20402;-74
2022/10/01 09:26:18;;;;;;;1999.90;999.90;;;18.10;99.90;;;;;;4973951;28;20501;-73
2022/10/01 09:28:49;;;;;;;1999.90;999.90;;;18.10;99.90;;;;;;4973433;28;20109;-74
2022/10/01 09:31:34;;;;;;;1999.90;999.90;;;18.20;99.90;;;;;;4973352;28;20023;-74
2022/10/01 09:34:12;;;;;;;1999.90;999.90;;;18.20;99.90;;;;;;4973257;28;20417;-73
2022/10/01 09:37:04;;;;;;;1999.90;999.90;;;18.30;99.90;;;;;;4973187;28;20023;-74
2022/10/01 09:39:41;;;;;;;1999.90;999.90;;;18.40;99.90;;;;;;4983069;28;20069;-73
2022/10/01 09:42:07;;;;;;;1999.90;999.90;;;18.30;99.90;;;;;;4993386;28;20057;-75
2022/10/01 09:44:33;;;;;;;1999.90;999.90;;;18.40;99.90;;;;;;4992827;28;20085;-73
2022/10/01 09:46:59;;;;;;;1999.90;999.90;;;18.40;99.90;;;;;;4992670;28;20057;-73
2022/10/01 09:49:28;;;;;;;1999.90;999.90;;;18.40;99.90;;;;;;4992320;28;20070;-73
2022/10/01 09:52:01;;;;;;;1999.90;999.90;;;18.40;99.90;;;;;;4994536;28;20018;-73
2022/10/01 09:54:47;;;;;;;1999.90;999.90;;;18.30;99.90;;;;;;4997018;28;20026;-73
2022/10/01 09:57:24;;;;;;;1999.90;999.90;;;18.40;99.90;;;;;;4996515;28;20465;-73
2022/10/01 10:00:09;;;;;;;1999.90;999.90;;;18.50;99.90;;;;;;4996747;28;20064;-73
2022/10/01 10:02:42;;;;;;;1999.90;999.90;;;18.50;99.90;;;;;;4996845;28;20023;-73
2022/10/01 10:05:14;;;;;;;1999.90;999.90;;;18.40;99.90;;;;;;4995916;28;20035;-73
2022/10/01 10:07:48;;;;;;;1999.90;999.90;;;18.40;99.90;;;;;;4996321;28;20120;-73
2022/10/01 10:10:20;;;;;;;1999.90;999.90;;;18.40;99.90;;;;;;4996523;28;20117;-74
2022/10/01 10:12:47;;;;;;;1999.90;999.90;;;18.50;99.90;;;;;;4996370;28;20025;-74
2022/10/01 10:15:25;;;;;;;1999.90;999.90;;;18.50;99.90;;;;;;4996209;28;20030;-74
2022/10/01 10:17:51;;;;;;;1999.90;999.90;;;18.50;99.90;;;;;;4995085;28;20627;-74
2022/10/01 10:20:36;;;;;;;1999.90;999.90;;;18.50;99.90;;;;;;4996150;28;20105;-75
2022/10/01 10:23:15;;;;;;;1999.90;999.90;;;18.60;99.90;;;;;;4991130;28;20026;-75
2022/10/01 10:25:41;;;;;;;1999.90;999.90;;;18.60;99.90;;;;;;4976678;28;20041;-74
2022/10/01 10:28:20;;;;;;;1999.90;999.90;;;18.60;99.90;;;;;;4976916;28;20102;-75
2022/10/01 10:30:47;;;;;;;1999.90;999.90;;;18.60;99.90;;;;;;4976601;28;20046;-75
2022/10/01 10:33:13;;;;;;;1999.90;999.90;;;18.60;99.90;;;;;;4976354;28;20015;-75
2022/10/01 10:35:39;;;;;;;1999.90;999.90;;;18.60;99.90;;;;;;4976615;28;20076;-76
2022/10/01 10:38:05;;;;;;;1999.90;999.90;;;18.60;99.90;;;;;;4976457;28;20023;-74
2022/10/01 10:40:41;;;;;;;1999.90;999.90;;;18.60;99.90;;;;;;4994627;28;20037;-75
2022/10/01 10:43:25;;;;;;;1999.90;999.90;;;18.60;99.90;;;;;;4995863;28;20549;-75
2022/10/01 10:45:55;;;;;;;1999.90;999.90;;;18.60;99.90;;;;;;4995934;28;20031;-76
2022/10/01 10:48:24;;;;;;;1999.90;999.90;;;18.60;99.90;;;;;;4995677;28;20026;-75
2022/10/01 10:51:01;;;;;;;1999.90;999.90;;;18.60;99.90;;;;;;4995728;28;20026;-74
2022/10/01 10:53:38;;;;;;;1999.90;999.90;;;18.60;99.90;;;;;;4995985;28;20073;-74
2022/10/01 10:56:05;;;;;;;1999.90;999.90;;;18.60;99.90;;;;;;4995869;28;20077;-75
2022/10/01 10:58:41;;;;;;;1999.90;999.90;;;18.80;99.90;;;;;;4995808;28;20370;-75
2022/10/01 11:01:16;;;;;;;1999.90;999.90;;;18.90;99.90;;;;;;4995433;28;20022;-74
2022/10/01 11:03:55;;;;;;;1999.90;999.90;;;18.90;99.90;;;;;;4994443;28;20027;-74
2022/10/01 11:06:21;;;;;;;1999.90;999.90;;;18.80;99.90;;;;;;4994786;28;20057;-74
2022/10/01 11:08:59;;;;;;;1999.90;999.90;;;18.80;99.90;;;;;;4995756;28;20525;-74
2022/10/01 11:11:46;;;;;;;1999.90;999.90;;;18.70;99.90;;;;;;4995484;28;20394;-75
2022/10/01 11:14:23;;;;;;;1999.90;999.90;;;18.90;99.90;;;;;;4995406;28;20033;-75
2022/10/01 11:16:49;;;;;;;1999.90;999.90;;;18.90;99.90;;;;;;4995213;28;20026;-75
2022/10/01 11:19:32;;;;;;;1999.90;999.90;;;19.00;99.90;;;;;;4994896;28;20105;-74
2022/10/01 11:22:36;;;;;;;1999.90;999.90;;;19.00;99.90;;;;;;4995315;28;20025;-75
2022/10/01 11:25:16;;;;;;;1999.90;999.90;;;18.80;99.90;;;;;;4975465;28;20106;-75
2022/10/01 11:28:07;;;;;;;1999.90;999.90;;;18.80;99.90;;;;;;4975524;28;20111;-75
2022/10/01 11:30:59;;;;;;;1999.90;999.90;;;18.80;99.90;;;;;;4975779;28;20482;-76
2022/10/01 11:33:58;;;;;;;1999.90;999.90;;;19.30;99.90;;;;;;4975330;28;20050;-76
2022/10/01 11:36:35;;;;;;;1999.90;999.90;;;19.50;99.90;;;;;;4975646;28;20483;-76
2022/10/01 11:39:09;;;;;;;1999.90;999.90;;;19.60;99.90;;;;;;4981229;28;20405;-76
2022/10/01 11:41:45;;;;;;;1999.90;999.90;;;19.50;99.90;;;;;;4994675;28;20030;-77
2022/10/01 11:44:31;;;;;;;1999.90;999.90;;;19.70;99.90;;;;;;4995002;28;20029;-77
2022/10/01 11:47:15;;;;;;;1999.90;999.90;;;19.60;99.90;;;;;;4994771;28;20034;-76
2022/10/01 11:49:59;;;;;;;1999.90;999.90;;;19.60;99.90;;;;;;4994360;28;20477;-76
2022/10/01 11:52:51;;;;;;;1999.90;999.90;;;19.50;99.90;;;;;;4994908;28;20034;-76
2022/10/01 12:01:11;;;;;;;1999.90;999.90;;;19.40;99.90;;;;;;4985729;28;20166;-77
2022/10/01 12:03:52;;;;;;;1999.90;999.90;;;19.30;99.90;;;;;;4974705;28;20030;-76
2022/10/01 12:06:31;;;;;;;1999.90;999.90;;;19.80;99.90;;;;;;4974118;28;20525;-76
2022/10/01 12:09:40;;;;;;;1999.90;999.90;;;20.00;99.90;;;;;;4974954;28;20554;-76
2022/10/01 12:12:12;;;;;;;1999.90;999.90;;;19.90;99.90;;;;;;4972525;28;20125;-76
2022/10/01 12:14:56;;;;;;;1999.90;999.90;;;19.80;99.90;;;;;;4972959;28;20039;-79
2022/10/01 12:17:35;;;;;;;1999.90;999.90;;;19.70;99.90;;;;;;4979355;28;20114;-78
2022/10/01 12:20:04;;;;;;;1999.90;999.90;;;19.90;99.90;;;;;;4991523;28;20081;-77
2022/10/01 12:22:34;;;;;;;1999.90;999.90;;;20.10;99.90;;;;;;4992237;28;20133;-79
2022/10/01 12:25:00;;;;;;;1999.90;999.90;;;20.50;99.90;;;;;;4991595;28;20042;-80
2022/10/01 12:27:32;;;;;;;1999.90;999.90;;;20.50;99.90;;;;;;4991817;28;20073;-79